Time;durP1;ratioP1;P1;durP2;ratioP2;P2;SDS_P1;SDS_P2;PMS_P1;PMS_P2;Temp;Humidity;BMP_temperature;BMP_pressure;BME280_temperature;BME280_humidity;BME280_pressure;Samples;Min_cycle;Max_cycle;Signal;HPM_P1;HPM_P2
2022/09/26 00:01:07;;;;;;;7.17;4.80;;;;;;;5.96;100.00;100677.97;1802085;78;20923;-37
2022/09/26 00:03:35;;;;;;;4.87;4.42;;;;;;;5.86;100.00;100681.33;1830049;78;21437;-37
2022/09/26 00:06:03;;;;;;;5.25;4.75;;;;;;;5.79;100.00;100682.16;1829900;78;20963;-37
2022/09/26 00:08:30;;;;;;;5.40;4.90;;;;;;;5.72;100.00;100679.57;1830113;78;21468;-37
2022/09/26 00:11:00;;;;;;;4.78;4.42;;;;;;;5.68;100.00;100682.11;1829967;78;20947;-37
2022/09/26 00:13:28;;;;;;;5.67;5.05;;;;;;;5.62;100.00;100680.36;1829782;78;20955;-37
2022/09/26 00:15:56;;;;;;;11.75;6.80;;;;;;;5.59;100.00;100681.22;1830220;78;20884;-37
2022/09/26 00:18:24;;;;;;;8.33;6.12;;;;;;;5.55;100.00;100675.60;1829809;78;20876;-37
2022/09/26 00:20:51;;;;;;;7.28;5.40;;;;;;;5.50;100.00;100670.03;1829867;78;21405;-37
2022/09/26 00:23:18;;;;;;;6.87;4.78;;;;;;;5.46;100.00;100664.00;1829719;78;21127;-37
2022/09/26 00:25:46;;;;;;;5.70;5.10;;;;;;;5.42;100.00;100661.83;1829794;78;20860;-37
2022/09/26 00:28:14;;;;;;;6.37;5.62;;;;;;;5.39;100.00;100655.84;1830050;78;21420;-37
2022/09/26 00:30:41;;;;;;;6.95;5.65;;;;;;;5.34;100.00;100657.08;1829751;78;20883;-37
2022/09/26 00:33:07;;;;;;;7.70;5.25;;;;;;;5.30;100.00;100649.81;1829983;78;20915;-37
2022/09/26 00:35:34;;;;;;;5.83;5.30;;;;;;;5.26;100.00;100649.77;1829767;78;21132;-37
2022/09/26 00:38:01;;;;;;;6.67;5.90;;;;;;;5.21;100.00;100648.88;1829825;78;20967;-37
2022/09/26 00:40:29;;;;;;;7.78;6.17;;;;;;;5.14;100.00;100642.84;1829738;78;20920;-38
2022/09/26 00:42:57;;;;;;;8.35;6.25;;;;;;;5.11;100.00;100642.38;1829790;78;21045;-37
2022/09/26 00:45:29;;;;;;;8.03;6.50;;;;;;;5.11;100.00;100637.25;1830140;78;21373;-37
2022/09/26 00:48:02;;;;;;;5.90;5.30;;;;;;;5.11;100.00;100634.69;1830198;78;21136;-37
2022/09/26 00:50:34;;;;;;;14.50;5.90;;;;;;;5.12;100.00;100635.12;1829702;78;20915;-36
2022/09/26 00:53:12;;;;;;;10.40;5.92;;;;;;;5.08;100.00;100641.08;1801436;78;20958;-37
2022/09/26 00:55:42;;;;;;;7.37;5.58;;;;;;;5.02;100.00;100639.32;1801995;78;20880;-38
2022/09/26 00:58:17;;;;;;;7.03;5.80;;;;;;;4.99;100.00;100641.87;1830172;78;20923;-38
2022/09/26 01:00:46;;;;;;;6.67;6.05;;;;;;;4.98;100.00;100640.59;1818391;78;21241;-38
2022/09/26 01:03:13;;;;;;;10.23;6.60;;;;;;;5.00;100.00;100626.06;1829837;78;20951;-38
2022/09/26 01:05:41;;;;;;;6.60;5.97;;;;;;;5.03;100.00;100629.94;1829730;78;20924;-38
2022/09/26 01:08:08;;;;;;;8.98;6.30;;;;;;;5.05;100.00;100632.08;1829738;78;20953;-38
2022/09/26 01:10:35;;;;;;;7.42;6.70;;;;;;;5.08;100.00;100626.97;1829923;78;20876;-38
2022/09/26 01:13:02;;;;;;;7.65;5.80;;;;;;;5.11;100.00;100615.88;1802336;78;21135;-38
2022/09/26 01:15:29;;;;;;;6.92;6.20;;;;;;;5.13;100.00;100623.16;1829790;78;20967;-38
2022/09/26 01:17:56;;;;;;;7.60;6.12;;;;;;;5.12;100.00;100627.86;1829847;78;20911;-38
2022/09/26 01:20:46;;;;;;;12.90;6.50;;;;;;;5.12;100.00;100622.73;1829928;78;20876;-38
2022/09/26 01:24:01;;;;;;;8.40;6.83;;;;;;;5.11;100.00;100622.30;1829230;78;20951;-38
2022/09/26 01:26:46;;;;;;;7.08;6.00;;;;;;;5.08;100.00;100617.98;1829886;78;22036;-38
2022/09/26 01:30:05;;;;;;;7.15;5.90;;;;;;;5.07;100.00;100615.42;1829827;78;20858;-38
2022/09/26 01:32:49;;;;;;;7.28;5.60;;;;;;;5.08;100.00;100619.27;1828495;78;20977;-38
2022/09/26 01:35:43;;;;;;;5.65;5.30;;;;;;;5.04;100.00;100626.52;1829181;78;21532;-38
2022/09/26 01:38:41;;;;;;;8.43;5.97;;;;;;;5.04;100.00;100626.52;1829611;78;20970;-38
2022/09/26 01:41:44;;;;;;;7.10;5.62;;;;;;;5.01;100.00;100627.78;1829907;78;21245;-38
2022/09/26 01:44:32;;;;;;;6.03;5.22;;;;;;;4.96;100.00;100632.87;1790756;78;21547;-38
2022/09/26 01:47:13;;;;;;;7.17;5.67;;;;;;;4.95;100.00;100629.87;1829860;78;21002;-38
2022/09/26 01:50:01;;;;;;;6.30;5.62;;;;;;;4.97;100.00;100632.46;1829903;78;20972;-38
2022/09/26 01:52:37;;;;;;;6.10;5.60;;;;;;;4.98;100.00;100638.87;1829886;78;20852;-38
2022/09/26 01:55:33;;;;;;;7.08;5.65;;;;;;;4.98;100.00;100638.87;1829865;78;21979;-36
2022/09/26 01:58:11;;;;;;;7.15;5.45;;;;;;;5.01;100.00;100640.61;1829156;78;20880;-37
2022/09/26 02:00:40;;;;;;;5.62;5.12;;;;;;;5.04;100.00;100641.47;1829665;78;20963;-38
2022/09/26 02:03:11;;;;;;;6.10;5.60;;;;;;;5.08;100.00;100643.65;1830072;78;20919;-38
2022/09/26 02:05:45;;;;;;;6.37;5.87;;;;;;;5.14;100.00;100642.84;1829738;78;21457;-38
2022/09/26 02:08:26;;;;;;;7.08;5.70;;;;;;;5.16;100.00;100634.28;1816896;78;21148;-38
2022/09/26 02:11:02;;;;;;;13.43;5.70;;;;;;;5.21;100.00;100629.63;1802822;78;21465;-38
2022/09/26 02:13:44;;;;;;;12.20;4.78;;;;;;;5.23;100.00;100628.77;1829301;78;20959;-38
2022/09/26 02:16:18;;;;;;;8.65;5.28;;;;;;;5.20;100.00;100627.91;1829900;78;20954;-38
2022/09/26 02:19:02;;;;;;;6.22;5.15;;;;;;;5.11;100.00;100623.58;1830203;78;20947;-38
2022/09/26 02:21:30;;;;;;;5.85;4.60;;;;;;;5.06;100.00;100628.66;1818478;77;22162;-38
2022/09/26 02:23:56;;;;;;;5.95;5.10;;;;;;;5.02;100.00;100626.94;1828681;78;20907;-38
2022/09/26 02:26:23;;;;;;;5.22;4.83;;;;;;;4.95;100.00;100632.88;1817549;79;20912;-38
2022/09/26 02:28:51;;;;;;;5.60;5.10;;;;;;;4.87;100.00;100625.11;1808648;78;21470;-38
2022/09/26 02:31:21;;;;;;;5.37;4.87;;;;;;;4.72;100.00;100622.00;1817481;78;21019;-38
2022/09/26 02:33:49;;;;;;;4.90;4.50;;;;;;;4.72;100.00;100622.00;1808917;78;21088;-38
2022/09/26 02:36:17;;;;;;;5.20;4.70;;;;;;;4.64;100.00;100625.78;1817730;79;21358;-38
2022/09/26 02:40:35;;;;;;;5.80;5.20;;;;;;;4.61;100.00;100628.32;1816194;79;22567;-36
2022/09/26 02:43:30;;;;;;;5.95;5.42;;;;;;;4.53;100.00;100620.95;1789091;80;20876;-37
2022/09/26 02:46:20;;;;;;;5.55;5.15;;;;;;;4.53;100.00;100612.86;1789196;80;22267;-37
2022/09/26 02:48:55;;;;;;;5.33;4.92;;;;;;;4.55;100.00;100614.17;1788747;80;21512;-36
2022/09/26 02:52:06;;;;;;;5.67;5.17;;;;;;;4.51;100.00;100610.70;1789566;80;20984;-38
2022/09/26 02:55:00;;;;;;;6.03;5.30;;;;;;;4.36;100.00;100610.14;1789300;80;20932;-37
2022/09/26 02:57:46;;;;;;;5.83;5.30;;;;;;;4.36;100.00;100610.14;1789417;80;20892;-37
2022/09/26 03:00:18;;;;;;;6.60;5.72;;;;;;;4.30;100.00;100610.94;1789020;80;21910;-37
2022/09/26 03:03:15;;;;;;;8.20;7.40;;;;;;;4.25;100.00;100607.47;1753569;80;20964;-37
2022/09/26 03:05:43;;;;;;;9.18;8.33;;;;;;;4.23;100.00;100605.73;1789312;80;20908;-36
2022/09/26 03:08:19;;;;;;;8.38;7.37;;;;;;;4.17;100.00;100606.11;1758953;80;20951;-36
2022/09/26 03:10:45;;;;;;;8.98;8.15;;;;;;;4.11;100.00;100601.33;1789413;80;20979;-37
2022/09/26 03:13:15;;;;;;;12.82;11.48;;;;;;;4.06;100.00;100602.59;1789147;80;21845;-37
2022/09/26 03:15:45;;;;;;;8.00;6.80;;;;;;;4.06;100.00;100602.59;1758301;80;20852;-37
2022/09/26 03:18:18;;;;;;;6.35;5.75;;;;;;;4.07;100.00;100607.27;1789172;80;20857;-37
2022/09/26 03:20:45;;;;;;;6.10;5.40;;;;;;;3.99;100.00;100613.59;1789230;80;21034;-37
2022/09/26 03:23:12;;;;;;;10.13;6.05;;;;;;;3.99;100.00;100613.59;1789390;80;20960;-38
2022/09/26 03:25:39;;;;;;;12.18;6.28;;;;;;;3.96;100.00;100614.84;1757691;80;21226;-37
2022/09/26 03:28:09;;;;;;;6.25;5.15;;;;;;;3.93;100.00;100608.00;1758872;80;20980;-37
2022/09/26 03:30:37;;;;;;;8.15;5.80;;;;;;;3.96;100.00;100607.16;1789124;80;21548;-37
2022/09/26 03:33:09;;;;;;;5.87;5.37;;;;;;;3.96;100.00;100607.16;1762987;80;20928;-37
2022/09/26 03:35:36;;;;;;;8.13;5.70;;;;;;;3.95;100.00;100603.75;1789435;80;21552;-37
2022/09/26 03:38:03;;;;;;;7.08;6.35;;;;;;;3.95;100.00;100603.75;1789131;80;21197;-38
2022/09/26 03:40:31;;;;;;;7.58;5.83;;;;;;;3.93;100.00;100600.31;1784443;80;20983;-37
2022/09/26 03:43:15;;;;;;;8.45;6.10;;;;;;;3.97;100.00;100589.25;1671775;84;20956;-36
2022/09/26 03:45:43;;;;;;;6.47;5.80;;;;;;;3.97;100.00;100589.25;1731188;80;20971;-38
2022/09/26 03:48:12;;;;;;;10.40;5.78;;;;;;;3.98;100.00;100592.66;1783496;80;20865;-37
2022/09/26 03:50:40;;;;;;;7.55;6.08;;;;;;;3.93;100.00;100599.03;1783938;80;21147;-38
2022/09/26 03:53:07;;;;;;;6.80;6.10;;;;;;;3.93;100.00;100599.03;1783615;80;20976;-37
2022/09/26 03:55:34;;;;;;;9.43;5.47;;;;;;;3.93;100.00;100600.31;1783571;80;21425;-37
2022/09/26 03:58:01;;;;;;;6.90;5.15;;;;;;;3.93;100.00;100600.31;1783538;80;20881;-37
2022/09/26 04:00:30;;;;;;;10.05;5.37;;;;;;;3.95;100.00;100596.06;1783119;80;21429;-37
2022/09/26 04:03:01;;;;;;;8.43;5.60;;;;;;;3.99;100.00;100589.25;1783589;80;22063;-37
2022/09/26 04:05:30;;;;;;;11.22;6.75;;;;;;;4.09;100.00;100591.09;1782780;80;20952;-38
2022/09/26 04:07:58;;;;;;;8.38;6.40;;;;;;;4.28;100.00;100587.00;1783559;80;21489;-37
2022/09/26 04:10:26;;;;;;;6.95;6.33;;;;;;;4.49;100.00;100584.20;1783497;80;20991;-38
2022/09/26 04:12:53;;;;;;;7.60;6.90;;;;;;;4.69;100.00;100583.52;1783676;79;20845;-38
2022/09/26 04:15:20;;;;;;;9.13;6.42;;;;;;;4.87;100.00;100577.66;1783592;80;21143;-37
2022/09/26 04:17:49;;;;;;;9.85;7.17;;;;;;;5.04;100.00;100589.31;1784013;80;20909;-37
2022/09/26 04:20:17;;;;;;;14.85;7.00;;;;;;;5.16;100.00;100585.52;1783566;80;20956;-38
2022/09/26 04:22:44;;;;;;;7.75;6.67;;;;;;;5.34;100.00;100589.49;1783639;80;20932;-38
2022/09/26 04:25:12;;;;;;;8.50;6.30;;;;;;;5.50;100.00;100590.42;1783470;80;21589;-37
2022/09/26 04:27:38;;;;;;;8.38;5.92;;;;;;;5.68;100.00;100594.33;1783672;80;21138;-38
2022/09/26 04:30:06;;;;;;;6.33;5.83;;;;;;;5.83;100.00;100596.55;1754991;80;20967;-38
2022/09/26 04:32:35;;;;;;;7.10;5.85;;;;;;;5.95;100.00;100594.03;1750039;80;21573;-38
2022/09/26 04:35:09;;;;;;;7.60;5.40;;;;;;;6.04;100.00;100597.92;1740138;80;20967;-38
2022/09/26 04:37:36;;;;;;;6.72;5.00;;;;;;;6.13;100.00;100600.95;1783619;79;20964;-38
2022/09/26 04:40:05;;;;;;;10.00;5.10;;;;;;;6.22;100.00;100598.83;1783522;80;21112;-38
2022/09/26 04:42:35;;;;;;;6.05;5.37;;;;;;;6.29;100.00;100595.41;1755152;80;20885;-38
2022/09/26 04:45:02;;;;;;;6.28;5.70;;;;;;;6.41;100.00;100600.13;1783494;79;21486;-38
2022/09/26 04:47:29;;;;;;;12.90;4.87;;;;;;;6.52;100.00;100601.00;1783451;80;21447;-38
2022/09/26 04:50:05;;;;;;;5.62;5.12;;;;;;;6.60;100.00;100598.00;1767556;79;20913;-38
2022/09/26 04:52:32;;;;;;;5.85;5.25;;;;;;;6.69;100.00;100598.84;1780901;79;22602;-38
2022/09/26 04:54:59;;;;;;;7.62;5.22;;;;;;;6.75;100.00;100604.02;1755084;80;20967;-38
2022/09/26 04:57:26;;;;;;;5.40;4.85;;;;;;;6.82;100.00;100598.00;1783516;80;20920;-38
2022/09/26 04:59:54;;;;;;;5.70;4.45;;;;;;;6.89;100.00;100595.84;1783472;80;21522;-38
2022/09/26 05:02:21;;;;;;;6.87;4.92;;;;;;;6.98;100.00;100588.99;1783683;80;21423;-38
2022/09/26 05:04:50;;;;;;;7.67;5.42;;;;;;;7.05;100.00;100591.97;1783703;80;21128;-38
2022/09/26 05:07:18;;;;;;;7.05;4.92;;;;;;;7.13;100.00;100595.83;1755838;80;20885;-38
2022/09/26 05:09:46;;;;;;;7.55;5.08;;;;;;;7.19;100.00;100594.52;1750259;80;20951;-38
2022/09/26 05:12:16;;;;;;;10.13;5.12;;;;;;;7.27;100.00;100598.37;1783717;80;20980;-38
2022/09/26 05:14:44;;;;;;;5.58;5.08;;;;;;;7.35;100.00;100591.92;1783554;79;20945;-38
2022/09/26 05:17:12;;;;;;;7.80;5.40;;;;;;;7.43;100.00;100588.43;1755204;80;22162;-38
2022/09/26 05:19:39;;;;;;;5.67;5.15;;;;;;;7.53;100.00;100589.70;1783178;80;21010;-38
2022/09/26 05:22:16;;;;;;;5.40;4.87;;;;;;;7.64;100.00;100593.08;1753426;80;20905;-37
2022/09/26 05:27:29;;;;;;;5.37;4.87;;;;;;;7.89;100.00;100590.39;1783691;80;20987;-37
2022/09/26 05:29:56;;;;;;;5.72;5.10;;;;;;;8.00;100.00;100584.77;1755282;80;21390;-37
2022/09/26 05:32:23;;;;;;;6.92;4.62;;;;;;;8.13;100.00;100582.09;1783607;80;21446;-37
2022/09/26 05:34:51;;;;;;;6.20;4.50;;;;;;;8.26;100.00;100581.17;1783605;80;20885;-37
2022/09/26 05:37:19;;;;;;;7.90;4.50;;;;;;;8.37;100.00;100578.52;1783632;80;20999;-37
2022/09/26 05:42:32;;;;;;;5.25;4.75;;;;;;;8.63;100.00;100575.74;1775160;80;21217;-37
2022/09/26 05:45:01;;;;;;;11.48;5.10;;;;;;;8.79;100.00;100579.49;1774582;80;20893;-37
2022/09/26 05:47:31;;;;;;;5.80;4.25;;;;;;;8.94;100.00;100584.08;1775040;80;20893;-37
2022/09/26 05:49:59;;;;;;;5.90;4.60;;;;;;;9.08;100.00;100583.94;1748575;80;20929;-37
2022/09/26 05:52:27;;;;;;;4.87;4.37;;;;;;;9.24;100.00;100582.08;1775133;80;21498;-37
2022/09/26 05:54:55;;;;;;;4.97;4.40;;;;;;;9.37;100.00;100578.47;1753346;80;22005;-38
2022/09/26 05:57:23;;;;;;;6.83;4.30;;;;;;;9.51;100.00;100583.92;1753631;80;20932;-37
2022/09/26 05:59:52;;;;;;;5.92;4.35;;;;;;;9.62;100.00;100588.09;1774950;80;20842;-38
2022/09/26 06:02:21;;;;;;;5.92;4.17;;;;;;;9.76;100.00;100590.92;1775203;80;21488;-38
2022/09/26 06:04:50;;;;;;;5.62;4.37;;;;;;;9.90;100.00;100586.44;1762626;80;21038;-38
2022/09/26 06:07:19;;;;;;;5.53;4.40;;;;;;;10.08;100.00;100590.08;1773123;80;21011;-38
2022/09/26 06:09:46;;;;;;;5.67;4.30;;;;;;;10.23;100.00;100591.58;1774829;80;20988;-38
2022/09/26 06:12:16;;;;;;;9.15;4.53;;;;;;;10.40;100.00;100587.45;1774011;80;20944;-38
2022/09/26 06:14:45;;;;;;;10.38;4.87;;;;;;;10.58;100.00;100590.20;1775401;80;20889;-38
2022/09/26 06:17:12;;;;;;;8.33;4.45;;;;;;;10.75;100.00;100577.84;1775211;80;20889;-38
2022/09/26 06:19:39;;;;;;;8.60;4.40;;;;;;;10.94;100.00;100580.11;1775018;80;21208;-38
2022/09/26 06:22:06;;;;;;;9.35;3.90;;;;;;;11.15;100.00;100578.86;1774705;80;20988;-38
2022/09/26 06:24:33;;;;;;;3.83;3.55;;;;;;;11.32;100.00;100573.80;1775111;80;20957;-38
2022/09/26 06:27:00;;;;;;;6.35;3.55;;;;;;;11.46;100.00;100574.36;1774982;80;20885;-38
2022/09/26 06:29:28;;;;;;;3.33;3.10;;;;;;;11.63;100.00;100581.82;1775121;80;20912;-38
2022/09/26 06:31:55;;;;;;;4.17;3.77;;;;;;;11.83;100.00;100583.58;1775454;80;21156;-38
2022/09/26 06:34:25;;;;;;;11.20;3.77;;;;;;;12.09;100.00;100581.71;1774817;80;20917;-38
2022/09/26 06:36:58;;;;;;;8.30;3.37;;;;;;;12.43;100.00;100581.38;1773438;80;20967;-38
2022/09/26 06:39:34;;;;;;;4.17;2.95;;;;;;;12.73;100.00;100571.11;1775177;80;20979;-38
2022/09/26 06:41:55;;;;;;;5.65;3.50;;;;;;;12.99;100.00;100571.74;1773234;80;20968;-38
2022/09/26 06:44:30;;;;;;;5.45;2.50;;;;;;;13.27;100.00;100576.66;1775074;80;21074;-38
2022/09/26 06:47:11;;;;;;;7.35;3.20;;;;;;;13.55;100.00;100584.53;1774097;80;21660;-38
2022/09/26 06:49:39;;;;;;;7.40;2.75;;;;;;;13.74;100.00;100590.05;1775021;80;21461;-38
2022/09/26 06:52:10;;;;;;;3.83;2.62;;;;;;;13.90;100.00;100585.27;1774054;80;21454;-38
2022/09/26 06:54:37;;;;;;;6.00;2.80;;;;;;;14.10;100.00;100575.13;1775027;80;21035;-38
2022/09/26 06:57:03;;;;;;;5.22;3.20;;;;;;;14.29;100.00;100569.75;1775082;80;21134;-38
2022/09/26 06:59:32;;;;;;;12.63;3.77;;;;;;;14.47;100.00;100571.33;1720527;80;20965;-38
2022/09/26 07:02:15;;;;;;;7.50;3.55;;;;;;;14.68;100.00;100567.62;1773991;80;20889;-38
2022/09/26 07:05:04;;;;;;;24.60;3.95;;;;;;;14.84;100.00;100563.63;1774855;80;21562;-38
2022/09/26 07:07:41;;;;;;;36.17;5.33;;;;;;;14.97;100.00;100569.27;1774212;80;21028;-37
2022/09/26 07:10:10;;;;;;;27.30;5.10;;;;;;;15.14;100.00;100573.88;1774531;80;21886;-38
2022/09/26 07:12:42;;;;;;;12.45;3.62;;;;;;;15.36;100.00;100566.59;1774402;80;21510;-38
2022/09/26 07:15:16;;;;;;;5.55;3.42;;;;;;;15.54;100.00;100573.34;1774741;80;20968;-38
2022/09/26 07:17:41;;;;;;;10.58;3.98;;;;;;;15.71;100.00;100580.53;1773605;80;20925;-38
2022/09/26 07:20:22;;;;;;;4.42;3.72;;;;;;;15.87;99.95;100569.05;1736382;80;21427;-38
2022/09/26 07:22:50;;;;;;;15.23;4.00;;;;;;;15.95;97.54;100570.92;1773873;80;21104;-38
2022/09/26 07:25:17;;;;;;;20.75;4.40;;;;;;;16.05;98.15;100567.50;1775339;80;20968;-38
2022/09/26 07:27:47;;;;;;;15.15;4.03;;;;;;;16.13;96.20;100568.03;1753281;80;20889;-38
2022/09/26 07:30:13;;;;;;;11.40;3.42;;;;;;;16.17;96.86;100567.03;1752665;80;20937;-38
2022/09/26 07:32:46;;;;;;;7.58;3.90;;;;;;;16.29;96.79;100565.65;1773786;80;20905;-38
2022/09/26 07:35:16;;;;;;;9.98;2.72;;;;;;;16.41;96.96;100566.08;1773435;80;22343;-39
2022/09/26 07:37:43;;;;;;;10.10;4.80;;;;;;;16.48;96.69;100570.99;1775054;80;20948;-38
2022/09/26 07:40:10;;;;;;;11.50;7.85;;;;;;;16.55;95.68;100566.81;1777147;80;21489;-38
2022/09/26 07:42:38;;;;;;;10.50;3.50;;;;;;;16.60;95.02;100571.38;1755398;80;21010;-38
2022/09/26 07:45:06;;;;;;;6.58;2.65;;;;;;;16.71;95.52;100556.12;1783602;80;20912;-38
2022/09/26 07:50:37;;;;;;;5.10;2.67;;;;;;;17.04;92.79;100552.98;1783535;80;21459;-39
2022/09/26 07:53:05;;;;;;;4.97;2.70;;;;;;;17.30;92.13;100556.64;1781351;80;20959;-38
2022/09/26 07:56:04;;;;;;;10.45;2.98;;;;;;;17.53;89.91;100565.61;1755172;80;21554;-38
2022/09/26 07:58:05;;;;;;;11.08;3.37;;;;;;;17.75;89.19;100561.16;1780028;80;20896;-39
2022/09/26 08:00:50;;;;;;;13.90;3.90;;;;;;;17.90;87.20;100563.03;1783653;79;21244;-39
2022/09/26 08:03:19;;;;;;;32.70;4.00;;;;;;;18.18;86.89;100568.28;1727615;80;21015;-38
2022/09/26 08:05:47;;;;;;;3.70;2.98;;;;;;;18.36;84.30;100568.31;1783531;80;20944;-38
2022/09/26 08:08:15;;;;;;;12.18;3.02;;;;;;;18.38;78.22;100563.41;1755731;80;20975;-38
2022/09/26 08:10:47;;;;;;;9.65;3.00;;;;;;;18.32;79.47;100564.16;1778533;80;20921;-38
2022/09/26 08:13:34;;;;;;;3.98;2.85;;;;;;;18.27;79.38;100551.75;1781245;80;21167;-38
2022/09/26 08:16:22;;;;;;;10.03;2.92;;;;;;;18.47;79.05;100551.62;1783628;80;20892;-39
2022/09/26 08:18:50;;;;;;;5.12;2.50;;;;;;;18.73;78.36;100548.14;1783460;80;21541;-38
2022/09/26 08:21:17;;;;;;;6.67;2.00;;;;;;;18.91;74.61;100549.41;1783521;80;21473;-38
2022/09/26 08:23:45;;;;;;;7.62;2.05;;;;;;;18.98;73.13;100540.76;1755332;80;21022;-39
2022/09/26 08:26:31;;;;;;;1.70;1.60;;;;;;;19.06;71.34;100541.22;1783609;80;21268;-38
2022/09/26 08:29:02;;;;;;;1.98;1.77;;;;;;;19.17;68.03;100528.41;1781456;80;20925;-38
2022/09/26 08:31:30;;;;;;;2.15;1.70;;;;;;;19.25;67.00;100524.06;1783510;80;20908;-39
2022/09/26 08:33:58;;;;;;;6.78;1.87;;;;;;;19.24;59.96;100533.70;1783348;80;21030;-39
2022/09/26 08:36:25;;;;;;;1.62;1.52;;;;;;;19.36;63.03;100535.30;1783510;80;20940;-38
2022/09/26 08:38:55;;;;;;;3.75;1.80;;;;;;;19.53;59.06;100536.51;1765203;80;21565;-39
2022/09/26 08:41:58;;;;;;;5.42;1.37;;;;;;;19.60;57.00;100521.27;1776980;80;20933;-39
2022/09/26 08:48:23;;;;;;;9.55;1.92;;;;;;;19.86;53.73;100527.33;1726334;80;20980;-39
2022/09/26 08:51:31;;;;;;;4.55;1.80;;;;;;;20.08;54.53;100530.46;1772857;80;21423;-39
2022/09/26 08:54:18;;;;;;;4.75;1.47;;;;;;;20.41;54.05;100536.45;1775011;80;21274;-39
2022/09/26 08:56:57;;;;;;;4.40;1.70;;;;;;;20.81;50.40;100528.86;1775236;80;20936;-39
2022/09/26 08:59:42;;;;;;;2.87;1.92;;;;;;;21.01;50.36;100527.27;1753047;80;21059;-39
2022/09/26 09:02:36;;;;;;;3.60;1.50;;;;;;;21.06;48.33;100522.56;1775172;80;20889;-39
2022/09/26 09:05:10;;;;;;;1.75;1.42;;;;;;;21.13;47.28;100519.95;1775320;80;21035;-39
2022/09/26 09:07:39;;;;;;;1.30;1.30;;;;;;;21.10;44.11;100514.87;1774655;80;21339;-39
2022/09/26 09:10:11;;;;;;;1.77;1.67;;;;;;;20.95;47.23;100514.87;1774856;80;21487;-39
2022/09/26 09:13:01;;;;;;;3.02;1.55;;;;;;;20.98;47.20;100510.36;1756676;80;20913;-39
2022/09/26 09:16:31;;;;;;;3.00;1.40;;;;;;;21.07;47.64;100504.52;1772260;80;20936;-39
2022/09/26 09:19:17;;;;;;;1.70;1.60;;;;;;;21.29;48.32;100502.73;1747228;80;20976;-39
2022/09/26 09:22:25;;;;;;;2.35;2.20;;;;;;;21.46;47.85;100500.79;1774150;80;21811;-39
2022/09/26 09:25:03;;;;;;;2.83;1.82;;;;;;;21.43;46.83;100505.80;1774525;80;21000;-39
2022/09/26 09:27:59;;;;;;;2.17;1.55;;;;;;;21.38;47.08;100503.94;1771452;80;21005;-39
2022/09/26 09:30:48;;;;;;;5.40;1.70;;;;;;;21.49;46.74;100504.57;1775111;80;21374;-39
2022/09/26 09:33:45;;;;;;;4.28;1.52;;;;;;;21.58;46.69;100496.07;1775279;80;20885;-38
2022/09/26 09:36:47;;;;;;;8.15;1.60;;;;;;;21.35;47.72;100501.50;1775150;80;21154;-39
2022/09/26 09:39:36;;;;;;;1.30;1.20;;;;;;;21.20;46.46;100499.34;1774136;80;20961;-39
2022/09/26 09:42:19;;;;;;;3.20;1.50;;;;;;;21.01;48.39;100499.64;1747842;80;20936;-39
2022/09/26 09:45:00;;;;;;;2.27;1.45;;;;;;;20.86;49.34;100498.80;1774931;80;20990;-39
2022/09/26 09:47:30;;;;;;;1.98;1.42;;;;;;;20.68;50.00;100490.59;1747036;80;20972;-38
2022/09/26 09:49:58;;;;;;;10.45;1.92;;;;;;;20.54;49.01;100490.56;1774923;80;21166;-39
2022/09/26 09:52:55;;;;;;;2.50;1.50;;;;;;;20.49;49.64;100487.38;1778369;80;20932;-39
2022/09/26 09:55:33;;;;;;;3.42;1.80;;;;;;;20.57;50.56;100494.81;1775011;80;20849;-39
2022/09/26 09:58:21;;;;;;;1.60;1.50;;;;;;;20.84;50.33;100492.34;1750170;80;20975;-39
2022/09/26 10:01:00;;;;;;;1.57;1.45;;;;;;;21.17;49.42;100492.95;1764367;80;20971;-39
2022/09/26 10:03:36;;;;;;;4.53;1.80;;;;;;;21.33;49.66;100491.51;1775173;80;21046;-39
2022/09/26 10:06:08;;;;;;;8.78;1.52;;;;;;;21.60;51.48;100488.05;1774280;80;21522;-39
2022/09/26 10:08:39;;;;;;;1.37;1.30;;;;;;;21.90;47.93;100489.70;1774775;80;20892;-39
2022/09/26 10:11:32;;;;;;;2.45;1.45;;;;;;;21.86;46.32;100485.58;1774851;80;21435;-39
2022/09/26 10:14:08;;;;;;;1.85;1.35;;;;;;;21.68;47.62;100482.70;1771761;80;21446;-39
2022/09/26 10:17:14;;;;;;;3.10;1.30;;;;;;;21.68;49.23;100481.38;1775054;80;21269;-39
2022/09/26 10:19:43;;;;;;;2.47;1.62;;;;;;;21.82;49.25;100469.95;1774327;80;20941;-39
2022/09/26 10:22:23;;;;;;;7.53;1.70;;;;;;;22.00;49.65;100469.69;1775000;80;20916;-39
2022/09/26 10:24:48;;;;;;;5.62;1.57;;;;;;;22.15;49.71;100453.80;1774510;80;21007;-39
2022/09/26 10:27:35;;;;;;;1.70;1.60;;;;;;;22.23;49.63;100455.44;1774463;80;21312;-39
2022/09/26 10:30:10;;;;;;;1.82;1.50;;;;;;;22.31;48.11;100445.20;1775067;80;21902;-39
2022/09/26 10:32:44;;;;;;;3.37;1.55;;;;;;;22.25;48.68;100444.31;1773226;80;21486;-39
2022/09/26 10:35:23;;;;;;;4.33;1.62;;;;;;;22.05;49.01;100449.63;1771829;80;20928;-39
2022/09/26 10:38:02;;;;;;;2.40;1.60;;;;;;;22.10;50.58;100454.97;1774896;80;20949;-39
2022/09/26 10:40:45;;;;;;;1.60;1.50;;;;;;;22.18;49.99;100441.23;1775147;80;21014;-39
2022/09/26 10:43:30;;;;;;;3.33;1.82;;;;;;;22.30;51.33;100437.42;1744934;81;21239;-39
2022/09/26 10:46:13;;;;;;;4.55;1.75;;;;;;;22.42;52.64;100443.64;1773008;81;20917;-39
2022/09/26 10:49:01;;;;;;;1.92;1.82;;;;;;;22.56;52.23;100444.87;1773147;81;21011;-39
2022/09/26 10:51:36;;;;;;;2.37;1.95;;;;;;;22.66;53.09;100437.16;1772969;81;20972;-39
2022/09/26 10:54:18;;;;;;;2.50;1.82;;;;;;;22.98;52.85;100434.03;1773155;81;21400;-39
2022/09/26 10:56:53;;;;;;;7.70;2.10;;;;;;;23.15;53.16;100433.31;1772846;81;21241;-39
2022/09/26 10:59:24;;;;;;;3.47;2.20;;;;;;;23.23;53.47;100417.30;1773010;81;20960;-39
2022/09/26 11:01:54;;;;;;;5.78;2.67;;;;;;;23.38;53.39;100410.57;1773456;81;20972;-39
2022/09/26 11:07:30;;;;;;;9.48;2.65;;;;;;;23.93;53.35;100410.05;1663931;85;21509;-39
2022/09/26 11:10:08;;;;;;;8.03;2.65;;;;;;;24.01;52.53;100410.33;1741053;79;21110;-39
2022/09/26 11:12:57;;;;;;;8.78;2.72;;;;;;;24.02;51.76;100414.66;1770648;81;20976;-39
2022/09/26 11:15:27;;;;;;;5.95;2.77;;;;;;;23.93;51.98;100408.73;1772521;81;20937;-39
2022/09/26 11:17:54;;;;;;;12.70;2.98;;;;;;;23.61;52.91;100404.89;1707875;81;20862;-39
2022/09/26 11:20:49;;;;;;;9.50;2.83;;;;;;;23.47;53.51;100398.46;1773160;81;21489;-38
2022/09/26 11:23:45;;;;;;;9.80;3.87;;;;;;;23.33;54.46;100393.73;1773300;81;21128;-38
2022/09/26 11:26:20;;;;;;;10.93;3.30;;;;;;;23.07;54.82;100398.23;1772169;81;20933;-38
2022/09/26 11:28:54;;;;;;;10.35;2.85;;;;;;;22.82;55.70;100394.71;1773300;79;20910;-38
2022/09/26 11:31:28;;;;;;;12.43;3.50;;;;;;;22.63;56.58;100392.08;1745723;81;20925;-38
2022/09/26 11:34:13;;;;;;;6.37;3.52;;;;;;;22.47;56.69;100392.78;1768296;81;20925;-38
2022/09/26 11:37:11;;;;;;;8.28;3.33;;;;;;;22.17;58.24;100392.60;1773362;81;21092;-39
2022/09/26 11:40:21;;;;;;;11.60;3.37;;;;;;;21.98;59.69;100387.72;1772943;81;20985;-38
2022/09/26 11:43:23;;;;;;;7.33;3.58;;;;;;;22.02;60.60;100380.83;1779333;80;20875;-38
2022/09/26 11:46:27;;;;;;;13.93;3.55;;;;;;;22.07;60.79;100377.89;1780865;80;21519;-39
2022/09/26 11:49:21;;;;;;;10.98;3.40;;;;;;;22.02;61.23;100379.52;1780718;80;20967;-39
2022/09/26 11:52:13;;;;;;;8.48;3.45;;;;;;;21.87;61.57;100379.25;1770184;80;21173;-39
2022/09/26 11:54:58;;;;;;;4.40;3.40;;;;;;;21.65;62.92;100380.69;1780428;80;20925;-38
2022/09/26 11:57:36;;;;;;;8.33;3.55;;;;;;;21.56;64.43;100379.92;1780938;80;21004;-39
2022/09/26 12:00:23;;;;;;;10.72;4.35;;;;;;;21.63;65.38;100372.02;1780897;80;21106;-39
2022/09/26 12:03:32;;;;;;;5.37;4.15;;;;;;;21.79;66.53;100377.95;1752799;80;20869;-39
2022/09/26 12:06:21;;;;;;;5.95;3.67;;;;;;;22.07;64.22;100370.81;1780958;80;21254;-38
2022/09/26 12:09:06;;;;;;;18.60;5.58;;;;;;;22.17;63.74;100359.16;1780600;80;20916;-39
2022/09/26 12:11:59;;;;;;;10.25;4.55;;;;;;;22.08;62.95;100366.40;1780127;80;21012;-39
2022/09/26 12:15:13;;;;;;;13.30;5.45;;;;;;;21.97;63.74;100357.91;1780715;80;21561;-39
2022/09/26 12:18:12;;;;;;;38.17;6.55;;;;;;;21.95;64.77;100347.95;1780706;80;20880;-39